Time;durP1;ratioP1;P1;durP2;ratioP2;P2;SDS_P1;SDS_P2;PMS_P1;PMS_P2;Temp;Humidity;BMP_temperature;BMP_pressure;BME280_temperature;BME280_humidity;BME280_pressure;Samples;Min_cycle;Max_cycle;Signal;HPM_P1;HPM_P2
2022/05/15 00:01:00;;;;;;;18.02;6.22;;;10.50;99.90;;;;;;5031171;28;20068;-63
2022/05/15 00:03:26;;;;;;;21.45;5.72;;;10.50;99.90;;;;;;5028109;28;20062;-64
2022/05/15 00:05:57;;;;;;;20.55;6.30;;;10.50;99.90;;;;;;5028859;28;20516;-64
2022/05/15 00:08:25;;;;;;;18.48;6.50;;;10.50;99.90;;;;;;5027799;28;20064;-65
2022/05/15 00:10:51;;;;;;;14.60;5.68;;;10.50;99.90;;;;;;5030856;28;20053;-64
2022/05/15 00:13:18;;;;;;;22.65;6.55;;;10.50;99.90;;;;;;5029315;28;20426;-65
2022/05/15 00:15:43;;;;;;;23.60;6.22;;;10.50;99.90;;;;;;5026766;28;20083;-64
2022/05/15 00:18:10;;;;;;;24.42;6.35;;;10.40;99.90;;;;;;5021756;28;20789;-65
2022/05/15 00:20:37;;;;;;;20.35;5.90;;;10.40;99.90;;;;;;5028773;28;20045;-63
2022/05/15 00:23:03;;;;;;;19.63;6.07;;;10.40;99.90;;;;;;5030414;28;20061;-64
2022/05/15 00:25:29;;;;;;;17.73;5.93;;;10.40;99.90;;;;;;5029518;28;20135;-64
2022/05/15 00:27:55;;;;;;;20.25;5.97;;;10.30;99.90;;;;;;5030893;28;20080;-63
2022/05/15 00:30:21;;;;;;;25.50;6.28;;;10.30;99.90;;;;;;5027929;28;20126;-67
2022/05/15 00:32:47;;;;;;;19.58;6.35;;;10.30;99.90;;;;;;5045541;28;20050;-63
2022/05/15 00:35:13;;;;;;;26.13;6.60;;;10.30;99.90;;;;;;5030186;28;20053;-63
2022/05/15 00:37:39;;;;;;;22.90;7.18;;;10.30;99.90;;;;;;5031627;28;20071;-66
2022/05/15 00:40:06;;;;;;;25.13;6.38;;;10.30;99.90;;;;;;5031705;28;20497;-64
2022/05/15 00:42:32;;;;;;;21.33;6.88;;;10.20;99.90;;;;;;5028181;28;20103;-64
2022/05/15 00:44:58;;;;;;;28.83;6.88;;;10.20;99.90;;;;;;5030742;28;20053;-64
2022/05/15 00:47:23;;;;;;;18.02;5.93;;;10.20;99.90;;;;;;5026125;28;20045;-64
2022/05/15 00:49:50;;;;;;;23.33;6.63;;;10.20;99.90;;;;;;5029067;28;20053;-67
2022/05/15 00:52:22;;;;;;;23.70;6.75;;;10.10;99.90;;;;;;5031415;28;20093;-64
2022/05/15 00:54:54;;;;;;;20.23;6.45;;;10.10;99.90;;;;;;5029887;28;20045;-64
2022/05/15 00:57:28;;;;;;;25.05;7.05;;;10.10;99.90;;;;;;5030286;28;20553;-65
2022/05/15 01:00:04;;;;;;;23.23;6.47;;;10.00;99.90;;;;;;5045500;28;20072;-64
2022/05/15 01:02:34;;;;;;;17.50;5.75;;;10.00;99.90;;;;;;5030225;28;20563;-64
2022/05/15 01:05:00;;;;;;;15.07;5.82;;;10.00;99.90;;;;;;5032471;28;20646;-63
2022/05/15 01:07:25;;;;;;;24.05;6.60;;;9.90;99.90;;;;;;5031534;28;20076;-64
2022/05/15 01:09:52;;;;;;;23.52;6.88;;;9.90;99.90;;;;;;5029538;28;20481;-64
2022/05/15 01:12:18;;;;;;;23.02;5.72;;;9.90;99.90;;;;;;5030646;28;20060;-63
2022/05/15 01:14:45;;;;;;;21.77;6.45;;;9.90;99.90;;;;;;5024524;28;20053;-63
2022/05/15 01:17:11;;;;;;;22.48;6.35;;;9.90;99.90;;;;;;5028148;28;20060;-65
2022/05/15 01:19:39;;;;;;;25.83;6.70;;;9.80;99.90;;;;;;5027707;28;20049;-65
2022/05/15 01:22:06;;;;;;;24.15;7.03;;;9.80;99.90;;;;;;5029074;28;20163;-63
2022/05/15 01:24:32;;;;;;;27.42;6.20;;;9.80;99.90;;;;;;5043062;28;20049;-64
2022/05/15 01:27:03;;;;;;;21.58;6.90;;;9.80;99.90;;;;;;5029466;28;20063;-64
2022/05/15 01:29:38;;;;;;;24.27;6.97;;;9.70;99.90;;;;;;5031655;28;20049;-63
2022/05/15 01:32:04;;;;;;;23.10;6.55;;;9.70;99.90;;;;;;5030924;28;20466;-63
2022/05/15 01:34:30;;;;;;;20.35;7.28;;;9.70;99.90;;;;;;5032091;28;20068;-63
2022/05/15 01:36:57;;;;;;;20.83;6.88;;;9.70;99.90;;;;;;5032423;28;20144;-63
2022/05/15 01:39:23;;;;;;;21.58;6.65;;;9.70;99.90;;;;;;5029095;28;20045;-62
2022/05/15 01:41:49;;;;;;;21.40;6.78;;;9.70;99.90;;;;;;5033441;28;20490;-63
2022/05/15 01:44:14;;;;;;;18.10;6.60;;;9.70;99.90;;;;;;5031497;28;20061;-63
2022/05/15 01:46:40;;;;;;;18.65;6.50;;;9.60;99.90;;;;;;5029508;28;20076;-63
2022/05/15 01:49:06;;;;;;;19.92;6.90;;;9.60;99.90;;;;;;5033211;28;20045;-65
2022/05/15 01:51:34;;;;;;;25.38;6.32;;;9.60;99.90;;;;;;5031740;28;20046;-64
2022/05/15 01:54:04;;;;;;;23.73;6.15;;;9.60;99.90;;;;;;5032620;28;20114;-64
2022/05/15 01:56:30;;;;;;;22.85;6.65;;;9.60;99.90;;;;;;5032704;28;20089;-65
2022/05/15 01:58:57;;;;;;;20.23;6.93;;;9.60;99.90;;;;;;5030562;28;20038;-65
2022/05/15 02:01:23;;;;;;;20.27;6.28;;;9.50;99.90;;;;;;5017287;28;20061;-64
2022/05/15 02:03:48;;;;;;;25.80;7.18;;;9.50;99.90;;;;;;5031460;28;20046;-64
2022/05/15 02:06:14;;;;;;;18.10;6.57;;;9.50;99.90;;;;;;5031946;28;20045;-64
2022/05/15 02:08:40;;;;;;;23.38;7.80;;;9.50;99.90;;;;;;5016156;28;20498;-66
2022/05/15 02:11:05;;;;;;;22.88;6.70;;;9.50;99.90;;;;;;5033095;28;20041;-63
2022/05/15 02:13:31;;;;;;;24.02;7.03;;;9.50;99.90;;;;;;5033862;28;20179;-63
2022/05/15 02:15:57;;;;;;;22.00;7.28;;;9.50;99.90;;;;;;5031880;28;20096;-63
2022/05/15 02:18:23;;;;;;;26.10;7.97;;;9.50;99.90;;;;;;5031783;28;20049;-65
2022/05/15 02:20:49;;;;;;;19.95;6.55;;;9.50;99.90;;;;;;5032322;28;20057;-63
2022/05/15 02:23:15;;;;;;;21.08;6.65;;;9.50;99.90;;;;;;5032195;28;20053;-64
2022/05/15 02:25:41;;;;;;;27.85;7.65;;;9.40;99.90;;;;;;5030826;28;20072;-64
2022/05/15 02:28:07;;;;;;;19.65;6.95;;;9.40;99.90;;;;;;5032049;28;20478;-63
2022/05/15 02:30:33;;;;;;;21.25;7.68;;;9.40;99.90;;;;;;5033528;28;20057;-63
2022/05/15 02:32:59;;;;;;;19.55;6.97;;;9.40;99.90;;;;;;5029796;28;20041;-64
2022/05/15 02:35:25;;;;;;;18.13;7.20;;;9.40;99.90;;;;;;5031698;28;20063;-65
2022/05/15 02:37:51;;;;;;;20.92;7.13;;;9.30;99.90;;;;;;5031501;28;20573;-63
2022/05/15 02:40:23;;;;;;;21.17;6.57;;;9.30;99.90;;;;;;5032111;28;20406;-64
2022/05/15 02:42:49;;;;;;;;;;;9.30;99.90;;;;;;5030383;28;20053;-64
2022/05/15 02:45:15;;;;;;;23.13;6.53;;;9.30;99.90;;;;;;5032570;28;19921;-65
2022/05/15 02:47:41;;;;;;;16.13;5.95;;;9.20;99.90;;;;;;5032077;28;20060;-64
2022/05/15 02:52:53;;;;;;;24.13;6.72;;;9.20;99.90;;;;;;5029728;28;20709;-63
2022/05/15 02:55:20;;;;;;;19.00;6.63;;;9.20;99.90;;;;;;5031568;28;20096;-63
2022/05/15 02:57:46;;;;;;;24.20;7.65;;;9.10;99.90;;;;;;5027286;28;20482;-64
2022/05/15 03:00:13;;;;;;;22.13;6.65;;;9.10;99.90;;;;;;5029857;28;20072;-64
2022/05/15 03:02:40;;;;;;;22.70;7.18;;;9.10;99.90;;;;;;5032786;28;20049;-65
2022/05/15 03:05:07;;;;;;;21.80;7.30;;;9.10;99.90;;;;;;5029310;28;20120;-65
2022/05/15 03:07:33;;;;;;;22.02;7.78;;;9.10;99.90;;;;;;5030652;28;20069;-64
2022/05/15 03:09:59;;;;;;;25.55;8.00;;;9.10;99.90;;;;;;5030556;28;20095;-63
2022/05/15 03:12:24;;;;;;;19.67;8.13;;;9.10;99.90;;;;;;5031768;28;20081;-64
2022/05/15 03:14:50;;;;;;;27.95;8.07;;;9.00;99.90;;;;;;5027559;28;21839;-64
2022/05/15 03:17:17;;;;;;;24.80;8.32;;;9.00;99.90;;;;;;5031340;28;20051;-63
2022/05/15 03:19:43;;;;;;;21.88;7.00;;;9.00;99.90;;;;;;5031837;28;20406;-62
2022/05/15 03:22:09;;;;;;;21.30;7.82;;;9.00;99.90;;;;;;5026943;28;20068;-64
2022/05/15 03:24:35;;;;;;;29.13;7.90;;;9.00;99.90;;;;;;5030660;28;20057;-63
2022/05/15 03:27:01;;;;;;;26.77;7.93;;;9.00;99.90;;;;;;5029854;28;20048;-63
2022/05/15 03:29:27;;;;;;;20.15;6.38;;;9.00;99.90;;;;;;5029306;28;20409;-65
2022/05/15 03:31:53;;;;;;;18.02;7.13;;;9.00;99.90;;;;;;5032406;28;20093;-63
2022/05/15 03:34:19;;;;;;;21.50;7.78;;;9.00;99.90;;;;;;5028950;28;20150;-63
2022/05/15 03:36:47;;;;;;;21.08;7.93;;;8.90;99.90;;;;;;5030434;28;20132;-64
2022/05/15 03:39:14;;;;;;;25.70;6.80;;;8.90;99.90;;;;;;5031512;28;20057;-62
2022/05/15 03:41:41;;;;;;;21.25;7.72;;;8.90;99.90;;;;;;5031577;28;20111;-64
2022/05/15 03:44:07;;;;;;;24.40;7.80;;;8.90;99.90;;;;;;5032051;28;20045;-64
2022/05/15 03:46:34;;;;;;;20.58;7.93;;;8.90;99.90;;;;;;5028259;28;20044;-65
2022/05/15 03:49:00;;;;;;;21.58;7.97;;;8.90;99.90;;;;;;5028128;28;20053;-64
2022/05/15 03:51:26;;;;;;;21.15;7.05;;;8.90;99.90;;;;;;5031641;28;20489;-64
2022/05/15 03:53:52;;;;;;;19.58;7.45;;;9.00;99.90;;;;;;5030958;28;20136;-64
2022/05/15 03:56:17;;;;;;;21.77;7.07;;;9.00;99.90;;;;;;5029186;28;20431;-64
2022/05/15 03:58:43;;;;;;;22.20;8.00;;;9.00;99.90;;;;;;5029835;28;20103;-64
2022/05/15 04:01:09;;;;;;;21.25;7.35;;;9.00;99.90;;;;;;5030404;28;20072;-63
2022/05/15 04:03:35;;;;;;;20.30;7.85;;;9.00;99.90;;;;;;5029587;28;20053;-63
2022/05/15 04:06:01;;;;;;;23.73;8.10;;;9.00;99.90;;;;;;5031053;28;20049;-63
2022/05/15 04:08:27;;;;;;;25.63;8.57;;;9.00;99.90;;;;;;5031171;28;20060;-64
2022/05/15 04:10:54;;;;;;;17.00;6.03;;;9.00;99.90;;;;;;5031299;28;20054;-64
2022/05/15 04:13:20;;;;;;;24.48;7.82;;;9.00;99.90;;;;;;5029033;28;20135;-64
2022/05/15 04:15:45;;;;;;;23.95;8.07;;;9.00;99.90;;;;;;5013530;28;20129;-64
2022/05/15 04:18:11;;;;;;;21.10;7.57;;;9.10;99.90;;;;;;5027032;28;20080;-63
2022/05/15 04:20:37;;;;;;;20.08;7.35;;;9.10;99.90;;;;;;5028591;28;20084;-63
2022/05/15 04:23:02;;;;;;;17.95;7.13;;;9.10;99.90;;;;;;5029848;28;20466;-64
2022/05/15 04:25:28;;;;;;;21.60;7.57;;;9.10;99.90;;;;;;5030347;28;20087;-63
2022/05/15 04:27:54;;;;;;;20.50;7.15;;;9.10;99.90;;;;;;5029450;28;20054;-63
2022/05/15 04:30:25;;;;;;;21.13;6.97;;;9.20;99.90;;;;;;5028233;28;20073;-63
2022/05/15 04:32:51;;;;;;;23.20;7.13;;;9.10;99.90;;;;;;5013551;28;20080;-64
2022/05/15 04:35:18;;;;;;;24.27;6.53;;;9.20;99.90;;;;;;5029627;28;20797;-64
2022/05/15 04:37:44;;;;;;;25.67;7.07;;;9.20;99.90;;;;;;5031517;28;20064;-63
2022/05/15 04:40:12;;;;;;;22.33;7.05;;;9.30;99.90;;;;;;5025483;28;20418;-64
2022/05/15 04:42:38;;;;;;;23.10;6.53;;;9.30;99.90;;;;;;5029049;28;20492;-62
2022/05/15 04:45:04;;;;;;;23.52;7.40;;;9.30;99.90;;;;;;5030513;28;20188;-64
2022/05/15 04:47:30;;;;;;;22.25;7.97;;;9.30;99.90;;;;;;5031189;28;20061;-63
2022/05/15 04:49:56;;;;;;;21.35;7.20;;;9.40;99.90;;;;;;5029773;28;20156;-64
2022/05/15 04:52:22;;;;;;;22.88;6.90;;;9.40;99.90;;;;;;5032783;28;20096;-64
2022/05/15 04:54:48;;;;;;;21.02;6.68;;;9.50;99.90;;;;;;5029964;28;20413;-64
2022/05/15 04:57:13;;;;;;;23.02;9.15;;;9.50;99.90;;;;;;5028642;28;20053;-63
2022/05/15 04:59:39;;;;;;;20.05;7.30;;;9.50;99.90;;;;;;5028351;28;20199;-65
2022/05/15 05:02:05;;;;;;;20.63;7.18;;;9.60;99.90;;;;;;5029089;28;20500;-64
2022/05/15 05:04:30;;;;;;;18.25;7.60;;;9.60;99.90;;;;;;5027503;28;20045;-64
2022/05/15 05:06:56;;;;;;;14.63;6.97;;;9.70;99.90;;;;;;5017391;28;20410;-66
2022/05/15 05:09:21;;;;;;;19.13;7.15;;;9.80;99.90;;;;;;5031522;28;20057;-65
2022/05/15 05:11:47;;;;;;;20.05;6.28;;;9.80;99.90;;;;;;5034640;28;20465;-65
2022/05/15 05:14:13;;;;;;;23.05;7.20;;;9.90;99.90;;;;;;5030433;28;20489;-64
2022/05/15 05:16:38;;;;;;;15.90;6.75;;;10.00;99.90;;;;;;5032947;28;20134;-64
2022/05/15 05:19:04;;;;;;;20.27;6.60;;;10.10;99.90;;;;;;5030014;28;20053;-64
2022/05/15 05:21:30;;;;;;;23.45;7.28;;;10.10;99.90;;;;;;5031232;28;20085;-65
2022/05/15 05:23:55;;;;;;;16.98;6.53;;;10.20;99.90;;;;;;5031684;28;20060;-63
2022/05/15 05:26:22;;;;;;;21.15;7.05;;;10.30;99.90;;;;;;5031099;28;20053;-64
2022/05/15 05:28:47;;;;;;;15.52;6.05;;;10.40;99.90;;;;;;5032221;28;20102;-63
2022/05/15 05:31:14;;;;;;;16.88;6.53;;;10.50;99.90;;;;;;5030651;28;20120;-63
2022/05/15 05:33:40;;;;;;;15.55;6.93;;;11.20;99.90;;;;;;5033193;28;20061;-63
2022/05/15 05:36:07;;;;;;;15.43;6.32;;;12.40;99.90;;;;;;5032655;28;20045;-64
2022/05/15 05:38:33;;;;;;;19.02;6.10;;;13.40;99.90;;;;;;5032849;28;20058;-64
2022/05/15 05:40:59;;;;;;;20.67;6.65;;;14.30;99.90;;;;;;5032224;28;20080;-63
2022/05/15 05:43:24;;;;;;;16.77;5.95;;;14.90;99.90;;;;;;5029252;28;20505;-64
2022/05/15 05:45:50;;;;;;;19.15;6.38;;;15.30;99.90;;;;;;5031143;28;20055;-64
2022/05/15 05:48:15;;;;;;;17.98;6.53;;;15.80;99.90;;;;;;5029717;28;20041;-65
2022/05/15 05:50:41;;;;;;;17.48;5.85;;;16.10;99.90;;;;;;5028556;28;20115;-66
2022/05/15 05:53:07;;;;;;;18.33;5.10;;;16.60;99.90;;;;;;5030556;28;20049;-64
2022/05/15 05:55:32;;;;;;;14.98;5.38;;;16.80;99.90;;;;;;5030055;28;20103;-64
2022/05/15 05:57:59;;;;;;;16.42;5.75;;;17.10;99.90;;;;;;5024981;28;20048;-64
2022/05/15 06:00:29;;;;;;;18.65;5.68;;;17.30;99.90;;;;;;5034505;28;20141;-63
2022/05/15 06:05:40;;;;;;;19.50;6.05;;;17.50;99.90;;;;;;5028127;28;20112;-65
2022/05/15 06:08:06;;;;;;;14.23;5.30;;;17.70;99.90;;;;;;5030430;28;20080;-64
2022/05/15 06:10:31;;;;;;;14.80;5.30;;;17.90;99.90;;;;;;5031889;28;20501;-63
2022/05/15 06:12:57;;;;;;;15.60;5.50;;;17.80;99.90;;;;;;5030521;28;20049;-64
2022/05/15 06:15:22;;;;;;;18.73;6.35;;;17.90;99.90;;;;;;5032884;28;20041;-64
2022/05/15 06:17:48;;;;;;;16.88;5.53;;;17.80;99.90;;;;;;5032847;28;20107;-66
2022/05/15 06:20:13;;;;;;;14.48;5.20;;;18.00;99.90;;;;;;5032877;28;20124;-64
2022/05/15 06:22:39;;;;;;;18.88;5.75;;;17.90;99.90;;;;;;5033037;28;20049;-64
2022/05/15 06:25:05;;;;;;;12.20;4.90;;;17.20;99.90;;;;;;5031914;28;20050;-63
2022/05/15 06:27:31;;;;;;;17.35;5.97;;;16.50;99.90;;;;;;5031995;28;20049;-64
2022/05/15 06:29:58;;;;;;;14.25;4.95;;;16.00;99.90;;;;;;5032858;28;20103;-64
2022/05/15 06:32:25;;;;;;;13.88;5.20;;;15.70;99.90;;;;;;5031735;28;20064;-65
2022/05/15 06:34:50;;;;;;;13.98;4.78;;;15.50;99.90;;;;;;5032546;28;20057;-63
2022/05/15 06:37:16;;;;;;;13.27;4.70;;;15.30;99.90;;;;;;5031770;28;20393;-65
2022/05/15 06:39:41;;;;;;;14.05;4.90;;;15.20;99.90;;;;;;5032580;28;20091;-64
2022/05/15 06:42:07;;;;;;;16.33;4.63;;;15.10;99.90;;;;;;5032403;28;20087;-63
2022/05/15 06:44:33;;;;;;;10.32;3.53;;;15.10;99.90;;;;;;5032902;28;20453;-64
2022/05/15 06:46:59;;;;;;;15.07;4.55;;;15.00;99.90;;;;;;5029929;28;20053;-64
2022/05/15 06:49:24;;;;;;;13.02;3.97;;;15.10;99.90;;;;;;5032321;28;20049;-64
2022/05/15 06:51:50;;;;;;;20.52;4.47;;;15.20;99.90;;;;;;5033542;28;20072;-64
2022/05/15 06:54:16;;;;;;;14.13;4.20;;;15.30;99.90;;;;;;5032975;28;20501;-63
2022/05/15 06:59:25;;;;;;;15.95;4.45;;;15.40;99.90;;;;;;5033197;28;20049;-64
2022/05/15 07:01:51;;;;;;;16.70;4.40;;;15.60;99.90;;;;;;5032213;28;20490;-65
2022/05/15 07:04:17;;;;;;;13.95;3.97;;;15.70;99.90;;;;;;5031593;28;20516;-64
2022/05/15 07:06:42;;;;;;;12.63;4.03;;;16.30;99.90;;;;;;5031525;28;20052;-65
2022/05/15 07:09:08;;;;;;;13.60;3.85;;;15.80;99.90;;;;;;5032741;28;20410;-64
2022/05/15 07:11:34;;;;;;;12.57;4.38;;;16.00;99.90;;;;;;5031188;28;20061;-65
2022/05/15 07:13:59;;;;;;;14.98;3.75;;;16.00;99.90;;;;;;5031107;28;20060;-63
2022/05/15 07:16:25;;;;;;;9.73;3.67;;;16.10;99.90;;;;;;5032316;28;20045;-65
2022/05/15 07:18:51;;;;;;;12.82;4.18;;;16.30;99.90;;;;;;5032307;28;20106;-65
2022/05/15 07:21:16;;;;;;;12.90;4.25;;;16.40;99.90;;;;;;5030849;28;20064;-64
2022/05/15 07:23:42;;;;;;;12.20;3.80;;;16.40;99.90;;;;;;5031293;28;20130;-64
2022/05/15 07:26:08;;;;;;;16.15;3.60;;;16.60;99.90;;;;;;5030756;28;20056;-64
2022/05/15 07:28:33;;;;;;;10.90;3.50;;;16.70;99.90;;;;;;5030558;28;20057;-65
2022/05/15 07:30:59;;;;;;;10.77;3.85;;;16.70;99.90;;;;;;5031943;28;20056;-64
2022/05/15 07:33:27;;;;;;;18.48;4.13;;;16.80;99.90;;;;;;5032100;28;20394;-64
2022/05/15 07:35:55;;;;;;;9.45;3.60;;;16.90;99.90;;;;;;5031450;28;20497;-64
2022/05/15 07:38:21;;;;;;;12.65;3.97;;;16.90;99.90;;;;;;5031061;28;20045;-64
2022/05/15 07:40:47;;;;;;;13.18;4.55;;;17.00;99.90;;;;;;5031220;28;20059;-64
2022/05/15 07:43:13;;;;;;;14.27;3.60;;;17.20;99.90;;;;;;5030891;28;20144;-64
2022/05/15 07:45:39;;;;;;;15.25;3.50;;;17.20;99.90;;;;;;5030486;28;20057;-64
2022/05/15 07:48:05;;;;;;;12.60;3.95;;;17.30;99.90;;;;;;5032449;28;20076;-64
2022/05/15 07:50:31;;;;;;;9.18;3.38;;;17.40;99.90;;;;;;5031003;28;20103;-64
2022/05/15 07:52:56;;;;;;;12.07;3.80;;;17.60;99.90;;;;;;5030888;28;20057;-64
2022/05/15 07:55:22;;;;;;;13.45;3.60;;;17.80;99.90;;;;;;5031031;28;20084;-64
2022/05/15 07:57:48;;;;;;;14.10;3.92;;;17.90;99.90;;;;;;5029699;28;20089;-64
2022/05/15 08:00:16;;;;;;;13.05;3.85;;;18.00;99.90;;;;;;5032215;28;20037;-64
2022/05/15 08:02:43;;;;;;;11.00;3.85;;;18.00;99.90;;;;;;5029772;28;20064;-63
2022/05/15 08:08:02;;;;;;;13.02;3.65;;;18.20;99.90;;;;;;5030139;28;20057;-66
2022/05/15 08:10:34;;;;;;;13.48;3.95;;;18.30;99.90;;;;;;5031651;28;20124;-65
2022/05/15 08:13:00;;;;;;;12.43;3.65;;;18.30;99.90;;;;;;5030533;28;20050;-63
2022/05/15 08:15:27;;;;;;;13.55;3.67;;;18.50;99.90;;;;;;5030911;28;20100;-63
2022/05/15 08:17:53;;;;;;;12.63;3.67;;;18.60;99.90;;;;;;5031322;28;20054;-65
2022/05/15 08:25:47;;;;;;;11.82;3.67;;;18.90;99.90;;;;;;5029373;28;20049;-64
2022/05/15 08:28:14;;;;;;;14.75;3.67;;;18.90;99.90;;;;;;5030381;28;20132;-66
2022/05/15 08:30:39;;;;;;;11.02;3.50;;;19.00;99.90;;;;;;5031089;28;20049;-65
2022/05/15 08:33:08;;;;;;;13.38;4.00;;;19.20;99.90;;;;;;5029979;28;20060;-64
2022/05/15 08:35:33;;;;;;;13.52;3.28;;;19.40;98.10;;;;;;5030533;28;20053;-65
2022/05/15 08:37:59;;;;;;;13.82;3.83;;;19.40;97.70;;;;;;5029643;28;20076;-64
2022/05/15 08:40:28;;;;;;;13.98;3.65;;;19.40;99.60;;;;;;5032137;28;20084;-63
2022/05/15 08:42:56;;;;;;;13.18;3.80;;;19.40;96.10;;;;;;5034356;28;20091;-64
2022/05/15 08:45:30;;;;;;;11.98;3.40;;;19.30;92.50;;;;;;5034134;28;20045;-66
2022/05/15 08:48:06;;;;;;;12.30;3.28;;;19.10;93.30;;;;;;5034271;28;20078;-64
2022/05/15 08:50:40;;;;;;;8.93;3.00;;;19.30;92.40;;;;;;5034030;28;20452;-64
2022/05/15 08:53:11;;;;;;;13.63;3.70;;;19.40;92.00;;;;;;5034645;28;20060;-64
2022/05/15 08:55:47;;;;;;;9.50;3.05;;;19.40;91.00;;;;;;5034175;28;20053;-65
2022/05/15 08:58:24;;;;;;;10.68;3.95;;;19.50;92.40;;;;;;5034014;28;20049;-65
2022/05/15 09:00:51;;;;;;;11.13;3.63;;;19.60;80.80;;;;;;5033342;28;20053;-64
2022/05/15 09:03:27;;;;;;;11.82;3.63;;;19.60;92.20;;;;;;5035532;28;20045;-64
2022/05/15 09:06:09;;;;;;;12.77;3.55;;;19.80;93.30;;;;;;5017555;28;20045;-64
2022/05/15 09:08:58;;;;;;;14.75;3.88;;;20.00;90.00;;;;;;5033877;28;20081;-64
2022/05/15 09:11:32;;;;;;;11.07;3.83;;;20.20;84.40;;;;;;5028223;28;20053;-64
2022/05/15 09:14:10;;;;;;;13.43;4.38;;;20.30;83.10;;;;;;5034097;28;20132;-65
2022/05/15 09:16:42;;;;;;;13.20;3.53;;;20.60;85.00;;;;;;5033167;28;20172;-64
2022/05/15 09:19:08;;;;;;;14.13;3.90;;;20.70;81.20;;;;;;5033008;28;20049;-65
2022/05/15 09:21:34;;;;;;;11.15;3.67;;;20.80;81.30;;;;;;5033628;28;20053;-64
2022/05/15 09:24:08;;;;;;;13.05;3.53;;;20.90;78.70;;;;;;5032424;28;20110;-65
2022/05/15 09:26:46;;;;;;;15.35;4.25;;;20.90;74.10;;;;;;5032809;28;20053;-65
2022/05/15 09:29:26;;;;;;;13.50;3.63;;;20.90;71.70;;;;;;5032345;28;20041;-64
2022/05/15 09:31:51;;;;;;;12.82;3.72;;;21.00;75.80;;;;;;5031566;28;20111;-64
2022/05/15 09:34:20;;;;;;;11.27;3.60;;;21.00;73.10;;;;;;5032503;28;20049;-64
2022/05/15 09:36:49;;;;;;;13.80;3.40;;;21.10;73.10;;;;;;5031518;28;20045;-64
2022/05/15 09:39:43;;;;;;;12.80;4.32;;;21.10;75.60;;;;;;5031745;28;20052;-65
2022/05/15 09:45:07;;;;;;;11.88;3.42;;;21.20;73.10;;;;;;5029414;28;20128;-63
2022/05/15 09:47:37;;;;;;;12.38;3.95;;;21.20;72.30;;;;;;5032487;28;20061;-65
2022/05/15 09:50:03;;;;;;;17.70;4.07;;;21.20;69.60;;;;;;5034677;28;20120;-65
2022/05/15 09:52:39;;;;;;;8.68;3.30;;;21.20;69.50;;;;;;5032101;28;20485;-64
2022/05/15 09:55:22;;;;;;;13.65;4.10;;;21.30;69.10;;;;;;5033207;28;20054;-65
2022/05/15 09:57:56;;;;;;;14.10;3.97;;;21.20;66.50;;;;;;5033701;28;20076;-65
2022/05/15 10:00:24;;;;;;;10.63;4.03;;;21.20;66.80;;;;;;5032312;28;20112;-65
2022/05/15 10:02:52;;;;;;;14.23;4.40;;;21.40;69.60;;;;;;5033818;28;20163;-64
2022/05/15 10:05:21;;;;;;;13.70;4.43;;;21.60;68.70;;;;;;5033112;28;20115;-63
2022/05/15 10:08:00;;;;;;;11.48;3.92;;;21.70;68.30;;;;;;5031684;28;20054;-66
2022/05/15 10:10:29;;;;;;;15.75;4.22;;;21.70;65.10;;;;;;5032500;28;20356;-65
2022/05/15 10:13:06;;;;;;;11.90;3.45;;;21.60;66.70;;;;;;5033460;28;20062;-65
2022/05/15 10:15:39;;;;;;;14.23;3.88;;;21.60;65.10;;;;;;5032109;28;20049;-65
2022/05/15 10:18:09;;;;;;;9.38;3.38;;;21.50;64.10;;;;;;5032383;28;20049;-64
2022/05/15 10:20:39;;;;;;;14.23;4.07;;;21.50;65.30;;;;;;5032580;28;20053;-65
2022/05/15 10:23:13;;;;;;;10.07;3.75;;;21.60;63.70;;;;;;5030590;28;20490;-65
2022/05/15 10:25:48;;;;;;;13.60;3.88;;;21.60;63.30;;;;;;5032357;28;20486;-64
2022/05/15 10:28:31;;;;;;;12.32;4.05;;;21.60;62.70;;;;;;5030940;28;20543;-65
2022/05/15 10:31:37;;;;;;;14.18;4.03;;;21.60;62.00;;;;;;5027887;28;20057;-65
2022/05/15 10:34:12;;;;;;;14.30;3.92;;;21.70;61.70;;;;;;5028617;28;20045;-64
2022/05/15 10:37:01;;;;;;;13.02;3.47;;;21.80;61.80;;;;;;5027731;28;20037;-64
2022/05/15 10:39:56;;;;;;;14.63;4.28;;;21.80;60.70;;;;;;5030450;28;20062;-64
2022/05/15 10:42:46;;;;;;;11.95;4.07;;;21.70;61.30;;;;;;5047732;28;20064;-65
2022/05/15 10:45:22;;;;;;;13.57;3.60;;;21.80;60.50;;;;;;5027912;28;20049;-64
2022/05/15 10:48:07;;;;;;;11.52;3.80;;;21.80;59.70;;;;;;5028260;28;20061;-65
2022/05/15 10:50:50;;;;;;;10.15;3.15;;;22.40;61.70;;;;;;5030939;28;20050;-63
2022/05/15 10:59:36;;;;;;;10.40;3.72;;;22.10;59.30;;;;;;5030949;28;20052;-64
2022/05/15 11:02:20;;;;;;;8.60;3.40;;;22.30;60.10;;;;;;5030720;28;20049;-63
2022/05/15 11:04:54;;;;;;;9.38;3.45;;;22.40;59.30;;;;;;5029951;28;20548;-64
2022/05/15 11:07:42;;;;;;;9.70;3.05;;;22.40;58.80;;;;;;5029634;28;20049;-65
2022/05/15 11:10:07;;;;;;;10.68;3.20;;;22.50;58.40;;;;;;5032416;28;20154;-66
2022/05/15 11:12:50;;;;;;;8.27;2.90;;;22.60;57.90;;;;;;5029179;28;20409;-65
2022/05/15 11:16:10;;;;;;;14.18;3.88;;;22.50;56.50;;;;;;5030378;28;20461;-64
2022/05/15 11:19:03;;;;;;;11.27;3.60;;;22.50;56.40;;;;;;5044126;28;20397;-63
2022/05/15 11:21:47;;;;;;;11.57;3.13;;;22.60;57.60;;;;;;5030808;28;20052;-65
2022/05/15 11:24:38;;;;;;;7.63;3.20;;;22.70;57.70;;;;;;5029958;28;20400;-63
2022/05/15 11:27:15;;;;;;;10.40;2.80;;;22.80;56.70;;;;;;5026606;28;20053;-66
2022/05/15 11:29:44;;;;;;;9.93;3.03;;;22.80;56.20;;;;;;5032317;28;20049;-64
2022/05/15 11:32:57;;;;;;;10.68;3.30;;;22.80;57.30;;;;;;5029317;28;20057;-65
2022/05/15 11:35:30;;;;;;;9.45;3.78;;;22.80;56.50;;;;;;5032052;28;20064;-65
2022/05/15 11:38:28;;;;;;;12.68;3.38;;;22.90;56.50;;;;;;5031124;28;20046;-65
2022/05/15 11:40:55;;;;;;;8.32;3.75;;;23.00;55.40;;;;;;5029700;28;20049;-66
2022/05/15 11:43:26;;;;;;;9.55;3.40;;;22.80;55.80;;;;;;5030053;28;20068;-65
2022/05/15 11:46:12;;;;;;;13.35;3.67;;;22.80;54.50;;;;;;5032182;28;20045;-65
2022/05/15 11:48:37;;;;;;;9.02;2.88;;;22.80;56.50;;;;;;5029620;28;20128;-64
2022/05/15 11:51:12;;;;;;;8.80;3.17;;;22.80;55.60;;;;;;5031448;28;20133;-65
2022/05/15 11:54:00;;;;;;;10.43;3.15;;;22.90;55.70;;;;;;5030462;28;20132;-64
2022/05/15 11:56:35;;;;;;;9.55;2.90;;;23.00;55.30;;;;;;5031853;28;20130;-64
2022/05/15 11:59:11;;;;;;;11.85;3.50;;;23.30;54.50;;;;;;5023318;28;20049;-65
2022/05/15 12:01:38;;;;;;;11.98;3.53;;;23.50;54.60;;;;;;5029943;28;20110;-63
2022/05/15 12:04:07;;;;;;;7.93;3.10;;;23.60;54.40;;;;;;5031717;28;20042;-66
2022/05/15 12:06:57;;;;;;;8.52;3.08;;;23.70;53.20;;;;;;5028537;28;20057;-65
2022/05/15 12:09:27;;;;;;;10.18;3.30;;;23.60;51.20;;;;;;5021973;28;20073;-65
2022/05/15 12:11:57;;;;;;;13.27;3.35;;;23.30;51.90;;;;;;5031014;28;20060;-65
2022/05/15 12:14:25;;;;;;;10.15;3.30;;;23.30;52.30;;;;;;5029778;28;20057;-65
2022/05/15 12:17:09;;;;;;;14.27;3.60;;;23.20;53.30;;;;;;5026924;28;20478;-65
2022/05/15 12:19:40;;;;;;;7.95;3.10;;;23.40;52.70;;;;;;5024667;28;20062;-65
2022/05/15 12:22:09;;;;;;;9.32;2.97;;;23.50;53.20;;;;;;5031745;28;20053;-65
2022/05/15 12:24:37;;;;;;;9.15;2.83;;;23.60;52.80;;;;;;5030969;28;20050;-64
2022/05/15 12:27:07;;;;;;;8.35;2.88;;;23.60;52.00;;;;;;5029083;28;20098;-65
2022/05/15 12:29:53;;;;;;;6.28;2.53;;;23.70;52.20;;;;;;5028879;28;20046;-67
2022/05/15 12:32:30;;;;;;;9.43;2.85;;;23.80;49.90;;;;;;5029874;28;20053;-65
2022/05/15 12:34:57;;;;;;;7.03;2.45;;;23.80;50.20;;;;;;5027165;28;20239;-67
2022/05/15 12:37:35;;;;;;;9.68;2.83;;;23.90;50.40;;;;;;5031631;28;20053;-65
2022/05/15 12:40:02;;;;;;;9.35;2.75;;;23.90;49.80;;;;;;5030105;28;20053;-64
2022/05/15 12:42:38;;;;;;;9.75;3.25;;;24.00;50.50;;;;;;5029096;28;20532;-65
2022/05/15 12:45:19;;;;;;;10.18;3.25;;;24.10;50.50;;;;;;5030595;28;20486;-66
2022/05/15 12:47:58;;;;;;;8.32;2.80;;;24.10;50.40;;;;;;5030874;28;20133;-65
2022/05/15 12:50:24;;;;;;;6.85;3.15;;;24.10;48.70;;;;;;5028859;28;20049;-67
2022/05/15 12:52:58;;;;;;;9.52;2.58;;;24.10;49.70;;;;;;5025233;28;20053;-66
2022/05/15 12:55:27;;;;;;;7.68;3.17;;;24.10;49.10;;;;;;5023500;28;20433;-65
2022/05/15 12:57:56;;;;;;;8.18;2.95;;;24.10;48.80;;;;;;5032714;28;20054;-66
2022/05/15 13:00:31;;;;;;;8.77;3.20;;;24.10;48.10;;;;;;5024948;28;20052;-64
2022/05/15 13:03:00;;;;;;;7.63;2.85;;;24.00;47.90;;;;;;5020585;28;20084;-65
2022/05/15 13:05:32;;;;;;;8.85;2.78;;;23.80;48.10;;;;;;5019900;28;20045;-67
2022/05/15 13:08:01;;;;;;;7.50;3.35;;;23.80;48.60;;;;;;5019149;28;20050;-65
2022/05/15 13:10:27;;;;;;;8.98;2.83;;;23.80;48.90;;;;;;5022574;28;20438;-64
2022/05/15 13:13:16;;;;;;;6.07;2.80;;;23.90;49.30;;;;;;5022136;28;20050;-66
2022/05/15 13:15:47;;;;;;;9.15;2.83;;;23.90;49.40;;;;;;5023584;28;20061;-65
2022/05/15 13:18:13;;;;;;;9.00;2.88;;;23.90;49.30;;;;;;5022891;28;20053;-65